Observations for BOLZANO CIV IT-AFB, Italy (LIPB)

LIPB 240850Z VRB02KT CAVOK 26/14 Q1019  
LIPB 240850Z VRB02KT CAVOK 26/14 Q1019 RMK MON LIB
LIPB 240750Z 11002KT CAVOK 25/14 Q1020  
LIPB 240750Z 11002KT CAVOK 25/14 Q1020 RMK MON LIB
LIPB 240650Z VRB02KT CAVOK 22/14 Q1021  
LIPB 240650Z VRB02KT CAVOK 22/14 Q1021 RMK MON LIB
LIPB 240550Z VRB02KT CAVOK 17/14 Q1021  
LIPB 240550Z VRB02KT CAVOK 17/14 Q1021 RMK MON LIB
LIPB 240450Z VRB02KT CAVOK 17/14 Q1020  
LIPB 240450Z VRB02KT CAVOK 17/14 Q1020 RMK MON LIB
LIPB 232050Z VRB02KT 9999 SCT110 22/16 Q1017
LIPB 232050Z VRB02KT 9999 SCT110 22/16 Q1017 RMK MON INVIS
LIPB 231950Z VRB02KT 9999 SCT110 24/16 Q1016
LIPB 231950Z VRB02KT 9999 SCT110 24/16 Q1016 RMK MON LIB
LIPB 231850Z 16004KT 9999 SCT130 26/14 Q1015
LIPB 231850Z 16004KT 9999 SCT130 26/14 Q1015 RMK MON LIB
LIPB 231750Z 17005KT 140V210 9999 FEW070 SCT130 28/14 Q1014 
LIPB 231750Z 17005KT 140V210 9999 FEW070 SCT130 28/14 Q1014 RMK MON LIB
LIPB 231650Z VRB03KT 9999 FEW060 SCT130 29/14 Q1013 
LIPB 231650Z VRB03KT 9999 FEW060 SCT130 29/14 Q1013 RMK MON LIB
LIPB 231550Z 13004KT 080V170 9999 FEW070 SCT130 29/14 Q1013 
LIPB 231550Z 13004KT 080V170 9999 FEW070 SCT130 29/14 Q1013 RMK MON LIB
LIPB 231450Z 19006KT 150V230 9999 FEW065 SCT130 31/17 Q1013 
LIPB 231450Z 19006KT 150V230 9999 FEW065 SCT130 31/17 Q1013 RMK MON LIB
LIPB 231350Z VRB03KT 9999 FEW035 SCT120 31/13 Q1013 
LIPB 231350Z VRB03KT 9999 FEW035 SCT120 31/13 Q1013 RMK MON LIB
LIPB 231250Z 28004KT 9999 SCT120 27/14 Q1013
LIPB 231250Z 28004KT 9999 SCT120 27/14 Q1013 RMK MON LIB
LIPB 231150Z 32003KT 9999 SCT120 28/15 Q1014
LIPB 231150Z 32003KT 9999 SCT120 28/15 Q1014 RMK MON LIB
LIPB 231050Z 00000KT 9999 FEW060 27/14 Q1014
LIPB 231050Z 00000KT 9999 FEW060 27/14 Q1014 RMK MON LIB
LIPB 230950Z 00000KT CAVOK 24/15 Q1015  
LIPB 230950Z 00000KT CAVOK 24/15 Q1015 RMK MON LIB
LIPB 230850Z 00000KT CAVOK 22/15 Q1015  
LIPB 230850Z 00000KT CAVOK 22/15 Q1015 RMK MON LIB